sensor_id;sensor_type;location;lat;lon;timestamp;P1;durP1;ratioP1;P2;durP2;ratioP2
12407;SDS011;6268;48.188;17.134;2023-04-16T00:01:17;3.10;;;2.93;;
12407;SDS011;6268;48.188;17.134;2023-04-16T00:03:46;3.53;;;3.33;;
12407;SDS011;6268;48.188;17.134;2023-04-16T00:06:15;2.60;;;2.50;;
12407;SDS011;6268;48.188;17.134;2023-04-16T00:08:44;2.97;;;2.87;;
12407;SDS011;6268;48.188;17.134;2023-04-16T00:11:13;2.80;;;2.70;;
12407;SDS011;6268;48.188;17.134;2023-04-16T00:13:41;2.88;;;2.78;;
12407;SDS011;6268;48.188;17.134;2023-04-16T00:16:10;2.63;;;2.50;;
12407;SDS011;6268;48.188;17.134;2023-04-16T00:18:40;2.70;;;2.60;;
12407;SDS011;6268;48.188;17.134;2023-04-16T00:21:09;2.83;;;2.73;;
12407;SDS011;6268;48.188;17.134;2023-04-16T00:23:38;3.03;;;2.92;;
12407;SDS011;6268;48.188;17.134;2023-04-16T00:26:07;3.20;;;2.90;;
12407;SDS011;6268;48.188;17.134;2023-04-16T00:28:36;2.75;;;2.60;;
12407;SDS011;6268;48.188;17.134;2023-04-16T00:31:05;3.10;;;2.92;;
12407;SDS011;6268;48.188;17.134;2023-04-16T00:33:34;2.78;;;2.58;;
12407;SDS011;6268;48.188;17.134;2023-04-16T00:36:04;2.60;;;2.50;;
12407;SDS011;6268;48.188;17.134;2023-04-16T00:38:34;2.60;;;2.40;;
12407;SDS011;6268;48.188;17.134;2023-04-16T00:41:03;2.38;;;2.28;;
12407;SDS011;6268;48.188;17.134;2023-04-16T00:43:32;2.60;;;2.40;;
12407;SDS011;6268;48.188;17.134;2023-04-16T00:46:01;2.78;;;2.58;;
12407;SDS011;6268;48.188;17.134;2023-04-16T00:48:33;2.80;;;2.70;;
12407;SDS011;6268;48.188;17.134;2023-04-16T00:51:06;3.03;;;2.93;;
12407;SDS011;6268;48.188;17.134;2023-04-16T00:53:35;3.13;;;2.92;;
12407;SDS011;6268;48.188;17.134;2023-04-16T00:56:05;3.03;;;2.83;;
12407;SDS011;6268;48.188;17.134;2023-04-16T00:58:34;3.23;;;2.70;;
12407;SDS011;6268;48.188;17.134;2023-04-16T01:01:03;2.70;;;2.60;;
12407;SDS011;6268;48.188;17.134;2023-04-16T01:03:34;2.63;;;2.53;;
12407;SDS011;6268;48.188;17.134;2023-04-16T01:06:08;2.97;;;2.85;;
12407;SDS011;6268;48.188;17.134;2023-04-16T01:08:38;2.90;;;2.80;;
12407;SDS011;6268;48.188;17.134;2023-04-16T01:11:08;3.00;;;2.85;;
12407;SDS011;6268;48.188;17.134;2023-04-16T01:13:37;2.90;;;2.80;;
12407;SDS011;6268;48.188;17.134;2023-04-16T01:16:07;2.78;;;2.67;;
12407;SDS011;6268;48.188;17.134;2023-04-16T01:18:37;4.78;;;3.30;;
12407;SDS011;6268;48.188;17.134;2023-04-16T01:21:08;3.23;;;3.03;;
12407;SDS011;6268;48.188;17.134;2023-04-16T01:23:37;3.22;;;3.03;;
12407;SDS011;6268;48.188;17.134;2023-04-16T01:26:06;3.10;;;2.95;;
12407;SDS011;6268;48.188;17.134;2023-04-16T01:28:35;3.00;;;2.90;;
12407;SDS011;6268;48.188;17.134;2023-04-16T01:31:04;3.20;;;3.00;;
12407;SDS011;6268;48.188;17.134;2023-04-16T01:33:33;2.80;;;2.60;;
12407;SDS011;6268;48.188;17.134;2023-04-16T01:36:02;3.08;;;2.97;;
12407;SDS011;6268;48.188;17.134;2023-04-16T01:38:33;3.33;;;3.23;;
12407;SDS011;6268;48.188;17.134;2023-04-16T01:41:02;3.70;;;3.50;;
12407;SDS011;6268;48.188;17.134;2023-04-16T01:43:31;4.07;;;3.88;;
12407;SDS011;6268;48.188;17.134;2023-04-16T01:46:07;3.92;;;3.72;;
12407;SDS011;6268;48.188;17.134;2023-04-16T01:48:41;3.80;;;3.60;;
12407;SDS011;6268;48.188;17.134;2023-04-16T01:51:11;3.55;;;3.35;;
12407;SDS011;6268;48.188;17.134;2023-04-16T01:53:41;3.50;;;3.30;;
12407;SDS011;6268;48.188;17.134;2023-04-16T01:56:10;3.80;;;3.60;;
12407;SDS011;6268;48.188;17.134;2023-04-16T01:58:39;3.10;;;3.00;;
12407;SDS011;6268;48.188;17.134;2023-04-16T02:01:09;3.60;;;3.40;;
12407;SDS011;6268;48.188;17.134;2023-04-16T02:03:38;3.70;;;3.50;;
12407;SDS011;6268;48.188;17.134;2023-04-16T02:06:08;3.78;;;3.58;;
12407;SDS011;6268;48.188;17.134;2023-04-16T02:08:37;4.10;;;3.90;;
12407;SDS011;6268;48.188;17.134;2023-04-16T02:11:07;4.50;;;4.25;;
12407;SDS011;6268;48.188;17.134;2023-04-16T02:13:36;4.60;;;4.30;;
12407;SDS011;6268;48.188;17.134;2023-04-16T02:16:05;3.93;;;3.73;;
12407;SDS011;6268;48.188;17.134;2023-04-16T02:18:34;3.95;;;3.75;;
12407;SDS011;6268;48.188;17.134;2023-04-16T02:21:03;3.93;;;3.73;;
12407;SDS011;6268;48.188;17.134;2023-04-16T02:23:33;4.30;;;4.10;;
12407;SDS011;6268;48.188;17.134;2023-04-16T02:26:02;4.68;;;4.38;;
12407;SDS011;6268;48.188;17.134;2023-04-16T02:28:32;4.20;;;3.95;;
12407;SDS011;6268;48.188;17.134;2023-04-16T02:31:01;4.35;;;4.15;;
12407;SDS011;6268;48.188;17.134;2023-04-16T02:33:30;4.20;;;4.00;;
12407;SDS011;6268;48.188;17.134;2023-04-16T02:35:59;4.45;;;4.20;;
12407;SDS011;6268;48.188;17.134;2023-04-16T02:38:28;4.82;;;4.53;;
12407;SDS011;6268;48.188;17.134;2023-04-16T02:40:57;4.50;;;4.20;;
12407;SDS011;6268;48.188;17.134;2023-04-16T02:43:26;4.93;;;4.63;;
12407;SDS011;6268;48.188;17.134;2023-04-16T02:45:56;4.47;;;4.18;;
12407;SDS011;6268;48.188;17.134;2023-04-16T02:48:25;4.25;;;4.05;;
12407;SDS011;6268;48.188;17.134;2023-04-16T02:50:54;4.30;;;4.00;;
12407;SDS011;6268;48.188;17.134;2023-04-16T02:53:23;3.88;;;3.67;;
12407;SDS011;6268;48.188;17.134;2023-04-16T02:55:52;4.13;;;3.93;;
12407;SDS011;6268;48.188;17.134;2023-04-16T02:58:23;4.38;;;4.18;;
12407;SDS011;6268;48.188;17.134;2023-04-16T03:00:53;4.95;;;4.65;;
12407;SDS011;6268;48.188;17.134;2023-04-16T03:03:24;4.82;;;4.53;;
12407;SDS011;6268;48.188;17.134;2023-04-16T03:05:53;4.80;;;4.60;;
12407;SDS011;6268;48.188;17.134;2023-04-16T03:08:22;4.97;;;4.68;;
12407;SDS011;6268;48.188;17.134;2023-04-16T03:10:51;5.13;;;4.80;;
12407;SDS011;6268;48.188;17.134;2023-04-16T03:13:20;5.20;;;4.90;;
12407;SDS011;6268;48.188;17.134;2023-04-16T03:15:49;4.68;;;4.28;;
12407;SDS011;6268;48.188;17.134;2023-04-16T03:18:18;4.65;;;4.45;;
12407;SDS011;6268;48.188;17.134;2023-04-16T03:20:51;4.97;;;4.68;;
12407;SDS011;6268;48.188;17.134;2023-04-16T03:23:21;4.97;;;4.67;;
12407;SDS011;6268;48.188;17.134;2023-04-16T03:25:50;5.07;;;4.73;;
12407;SDS011;6268;48.188;17.134;2023-04-16T03:28:19;5.13;;;4.83;;
12407;SDS011;6268;48.188;17.134;2023-04-16T03:30:51;5.00;;;4.60;;
12407;SDS011;6268;48.188;17.134;2023-04-16T03:33:20;4.90;;;4.60;;
12407;SDS011;6268;48.188;17.134;2023-04-16T03:35:57;4.40;;;4.20;;
12407;SDS011;6268;48.188;17.134;2023-04-16T03:38:25;4.50;;;4.30;;
12407;SDS011;6268;48.188;17.134;2023-04-16T03:40:54;4.93;;;4.60;;
12407;SDS011;6268;48.188;17.134;2023-04-16T03:43:23;4.50;;;4.30;;
12407;SDS011;6268;48.188;17.134;2023-04-16T03:45:52;4.90;;;4.60;;
12407;SDS011;6268;48.188;17.134;2023-04-16T03:48:21;4.20;;;4.00;;
12407;SDS011;6268;48.188;17.134;2023-04-16T03:50:50;3.60;;;3.40;;
12407;SDS011;6268;48.188;17.134;2023-04-16T03:53:20;4.10;;;3.90;;
12407;SDS011;6268;48.188;17.134;2023-04-16T03:55:49;4.60;;;4.33;;
12407;SDS011;6268;48.188;17.134;2023-04-16T03:58:19;4.50;;;4.20;;
12407;SDS011;6268;48.188;17.134;2023-04-16T04:00:48;4.60;;;4.30;;
12407;SDS011;6268;48.188;17.134;2023-04-16T04:03:19;4.70;;;4.50;;
12407;SDS011;6268;48.188;17.134;2023-04-16T04:05:48;4.77;;;4.47;;
12407;SDS011;6268;48.188;17.134;2023-04-16T04:08:17;5.20;;;4.90;;
12407;SDS011;6268;48.188;17.134;2023-04-16T04:10:48;4.78;;;4.55;;
12407;SDS011;6268;48.188;17.134;2023-04-16T04:13:18;4.38;;;3.88;;
12407;SDS011;6268;48.188;17.134;2023-04-16T04:18:34;5.10;;;4.80;;
12407;SDS011;6268;48.188;17.134;2023-04-16T04:21:04;5.73;;;5.43;;
12407;SDS011;6268;48.188;17.134;2023-04-16T04:23:33;5.25;;;4.88;;
12407;SDS011;6268;48.188;17.134;2023-04-16T04:26:04;5.28;;;4.97;;
12407;SDS011;6268;48.188;17.134;2023-04-16T04:28:33;5.95;;;5.57;;
12407;SDS011;6268;48.188;17.134;2023-04-16T04:31:02;5.97;;;5.60;;
12407;SDS011;6268;48.188;17.134;2023-04-16T04:33:31;6.00;;;5.70;;
12407;SDS011;6268;48.188;17.134;2023-04-16T04:36:00;5.85;;;5.55;;
12407;SDS011;6268;48.188;17.134;2023-04-16T04:38:29;6.00;;;5.70;;
12407;SDS011;6268;48.188;17.134;2023-04-16T04:40:58;6.25;;;5.85;;
12407;SDS011;6268;48.188;17.134;2023-04-16T04:43:28;6.07;;;5.60;;
12407;SDS011;6268;48.188;17.134;2023-04-16T04:45:57;6.72;;;6.32;;
12407;SDS011;6268;48.188;17.134;2023-04-16T04:48:26;6.00;;;5.60;;
12407;SDS011;6268;48.188;17.134;2023-04-16T04:50:55;5.95;;;5.60;;
12407;SDS011;6268;48.188;17.134;2023-04-16T04:53:24;6.57;;;6.18;;
12407;SDS011;6268;48.188;17.134;2023-04-16T04:55:53;5.95;;;5.65;;
12407;SDS011;6268;48.188;17.134;2023-04-16T04:58:35;6.00;;;5.70;;
12407;SDS011;6268;48.188;17.134;2023-04-16T05:01:04;5.70;;;5.40;;
12407;SDS011;6268;48.188;17.134;2023-04-16T05:03:33;5.80;;;5.40;;
12407;SDS011;6268;48.188;17.134;2023-04-16T05:06:03;5.25;;;4.95;;
12407;SDS011;6268;48.188;17.134;2023-04-16T05:08:32;4.90;;;4.70;;
12407;SDS011;6268;48.188;17.134;2023-04-16T05:11:01;5.13;;;4.82;;
12407;SDS011;6268;48.188;17.134;2023-04-16T05:13:30;4.80;;;4.60;;
12407;SDS011;6268;48.188;17.134;2023-04-16T05:16:19;4.97;;;4.68;;
12407;SDS011;6268;48.188;17.134;2023-04-16T05:18:47;5.30;;;5.00;;
12407;SDS011;6268;48.188;17.134;2023-04-16T05:21:17;4.30;;;4.10;;
12407;SDS011;6268;48.188;17.134;2023-04-16T05:23:46;5.43;;;5.13;;
12407;SDS011;6268;48.188;17.134;2023-04-16T05:26:15;5.10;;;4.80;;
12407;SDS011;6268;48.188;17.134;2023-04-16T05:28:43;5.22;;;4.93;;
12407;SDS011;6268;48.188;17.134;2023-04-16T05:31:12;5.50;;;5.20;;
12407;SDS011;6268;48.188;17.134;2023-04-16T05:33:42;4.38;;;4.18;;
12407;SDS011;6268;48.188;17.134;2023-04-16T05:36:11;4.60;;;4.40;;
12407;SDS011;6268;48.188;17.134;2023-04-16T05:38:40;5.00;;;4.70;;
12407;SDS011;6268;48.188;17.134;2023-04-16T05:41:09;5.00;;;4.70;;
12407;SDS011;6268;48.188;17.134;2023-04-16T05:43:38;4.32;;;4.13;;
12407;SDS011;6268;48.188;17.134;2023-04-16T05:46:07;4.00;;;3.80;;
12407;SDS011;6268;48.188;17.134;2023-04-16T05:48:36;4.32;;;4.13;;
12407;SDS011;6268;48.188;17.134;2023-04-16T05:51:06;4.78;;;4.47;;
12407;SDS011;6268;48.188;17.134;2023-04-16T05:53:35;3.85;;;3.65;;
12407;SDS011;6268;48.188;17.134;2023-04-16T05:56:04;4.07;;;3.72;;
12407;SDS011;6268;48.188;17.134;2023-04-16T05:58:33;4.20;;;4.00;;
12407;SDS011;6268;48.188;17.134;2023-04-16T06:01:02;4.30;;;4.10;;
12407;SDS011;6268;48.188;17.134;2023-04-16T06:03:37;5.40;;;5.00;;
12407;SDS011;6268;48.188;17.134;2023-04-16T06:06:07;4.07;;;3.83;;
12407;SDS011;6268;48.188;17.134;2023-04-16T06:08:36;3.88;;;3.67;;
12407;SDS011;6268;48.188;17.134;2023-04-16T06:11:05;3.72;;;3.53;;
12407;SDS011;6268;48.188;17.134;2023-04-16T06:13:35;3.97;;;3.70;;
12407;SDS011;6268;48.188;17.134;2023-04-16T06:16:05;3.53;;;3.33;;
12407;SDS011;6268;48.188;17.134;2023-04-16T06:18:34;3.22;;;3.13;;
12407;SDS011;6268;48.188;17.134;2023-04-16T06:21:07;3.65;;;3.45;;
12407;SDS011;6268;48.188;17.134;2023-04-16T06:23:55;3.40;;;3.20;;
12407;SDS011;6268;48.188;17.134;2023-04-16T06:26:23;3.70;;;3.50;;
12407;SDS011;6268;48.188;17.134;2023-04-16T06:28:52;3.80;;;3.60;;
12407;SDS011;6268;48.188;17.134;2023-04-16T06:31:21;3.55;;;3.35;;
12407;SDS011;6268;48.188;17.134;2023-04-16T06:33:51;4.07;;;3.70;;
12407;SDS011;6268;48.188;17.134;2023-04-16T06:36:21;3.50;;;3.40;;
12407;SDS011;6268;48.188;17.134;2023-04-16T06:38:50;3.80;;;3.60;;
12407;SDS011;6268;48.188;17.134;2023-04-16T06:41:19;4.22;;;4.00;;
12407;SDS011;6268;48.188;17.134;2023-04-16T06:43:51;7.75;;;6.93;;
12407;SDS011;6268;48.188;17.134;2023-04-16T06:46:20;13.35;;;11.25;;
12407;SDS011;6268;48.188;17.134;2023-04-16T06:48:49;17.55;;;15.45;;
12407;SDS011;6268;48.188;17.134;2023-04-16T06:51:17;12.07;;;10.50;;
12407;SDS011;6268;48.188;17.134;2023-04-16T06:53:48;7.75;;;7.07;;
12407;SDS011;6268;48.188;17.134;2023-04-16T06:56:17;4.32;;;4.13;;
12407;SDS011;6268;48.188;17.134;2023-04-16T06:58:46;3.60;;;3.40;;
12407;SDS011;6268;48.188;17.134;2023-04-16T07:01:15;5.57;;;5.18;;
12407;SDS011;6268;48.188;17.134;2023-04-16T07:03:44;5.88;;;5.47;;
12407;SDS011;6268;48.188;17.134;2023-04-16T07:06:14;7.53;;;7.00;;
12407;SDS011;6268;48.188;17.134;2023-04-16T07:08:43;8.75;;;8.05;;
12407;SDS011;6268;48.188;17.134;2023-04-16T07:11:14;8.90;;;8.30;;
12407;SDS011;6268;48.188;17.134;2023-04-16T07:13:43;9.63;;;8.93;;
12407;SDS011;6268;48.188;17.134;2023-04-16T07:16:12;8.77;;;8.07;;
12407;SDS011;6268;48.188;17.134;2023-04-16T07:18:41;9.27;;;8.57;;
12407;SDS011;6268;48.188;17.134;2023-04-16T07:21:10;11.43;;;10.48;;
12407;SDS011;6268;48.188;17.134;2023-04-16T07:23:39;15.63;;;14.23;;
12407;SDS011;6268;48.188;17.134;2023-04-16T07:26:08;11.73;;;10.80;;
12407;SDS011;6268;48.188;17.134;2023-04-16T07:28:38;10.13;;;9.35;;
12407;SDS011;6268;48.188;17.134;2023-04-16T07:31:07;9.43;;;8.70;;
12407;SDS011;6268;48.188;17.134;2023-04-16T07:33:36;9.40;;;8.73;;
12407;SDS011;6268;48.188;17.134;2023-04-16T07:36:05;11.30;;;10.38;;
12407;SDS011;6268;48.188;17.134;2023-04-16T07:38:34;11.70;;;10.70;;
12407;SDS011;6268;48.188;17.134;2023-04-16T07:41:03;10.32;;;9.43;;
12407;SDS011;6268;48.188;17.134;2023-04-16T07:43:32;9.75;;;8.95;;
12407;SDS011;6268;48.188;17.134;2023-04-16T07:46:03;10.38;;;9.57;;
12407;SDS011;6268;48.188;17.134;2023-04-16T07:48:32;10.05;;;9.25;;
12407;SDS011;6268;48.188;17.134;2023-04-16T07:51:01;10.30;;;9.50;;
12407;SDS011;6268;48.188;17.134;2023-04-16T07:53:30;10.50;;;9.60;;
12407;SDS011;6268;48.188;17.134;2023-04-16T07:55:59;9.60;;;8.90;;
12407;SDS011;6268;48.188;17.134;2023-04-16T07:58:28;10.07;;;9.27;;
12407;SDS011;6268;48.188;17.134;2023-04-16T08:00:57;9.75;;;9.02;;
12407;SDS011;6268;48.188;17.134;2023-04-16T08:03:28;9.68;;;8.90;;
12407;SDS011;6268;48.188;17.134;2023-04-16T08:05:57;7.97;;;7.38;;
12407;SDS011;6268;48.188;17.134;2023-04-16T08:08:26;8.00;;;7.47;;
12407;SDS011;6268;48.188;17.134;2023-04-16T08:10:55;8.13;;;7.53;;
12407;SDS011;6268;48.188;17.134;2023-04-16T08:13:24;9.63;;;8.73;;
12407;SDS011;6268;48.188;17.134;2023-04-16T08:15:52;8.43;;;7.82;;
12407;SDS011;6268;48.188;17.134;2023-04-16T08:18:21;7.90;;;7.30;;
12407;SDS011;6268;48.188;17.134;2023-04-16T08:20:51;8.40;;;7.80;;
12407;SDS011;6268;48.188;17.134;2023-04-16T08:23:21;7.70;;;7.10;;
12407;SDS011;6268;48.188;17.134;2023-04-16T08:25:50;7.53;;;7.03;;
12407;SDS011;6268;48.188;17.134;2023-04-16T08:28:19;7.28;;;6.75;;
12407;SDS011;6268;48.188;17.134;2023-04-16T08:30:47;6.88;;;6.38;;
12407;SDS011;6268;48.188;17.134;2023-04-16T08:33:16;6.22;;;5.78;;
12407;SDS011;6268;48.188;17.134;2023-04-16T08:35:46;6.88;;;6.38;;
12407;SDS011;6268;48.188;17.134;2023-04-16T08:38:16;6.25;;;5.85;;
12407;SDS011;6268;48.188;17.134;2023-04-16T08:40:45;6.00;;;5.60;;
12407;SDS011;6268;48.188;17.134;2023-04-16T08:43:15;6.40;;;6.00;;
12407;SDS011;6268;48.188;17.134;2023-04-16T08:45:46;6.50;;;6.00;;
12407;SDS011;6268;48.188;17.134;2023-04-16T08:48:16;6.43;;;5.93;;
12407;SDS011;6268;48.188;17.134;2023-04-16T08:50:48;6.60;;;6.10;;
12407;SDS011;6268;48.188;17.134;2023-04-16T08:53:24;6.07;;;5.78;;
12407;SDS011;6268;48.188;17.134;2023-04-16T08:56:02;5.68;;;5.25;;
12407;SDS011;6268;48.188;17.134;2023-04-16T08:58:33;6.53;;;6.10;;
12407;SDS011;6268;48.188;17.134;2023-04-16T09:01:03;4.20;;;4.00;;
12407;SDS011;6268;48.188;17.134;2023-04-16T09:03:33;3.88;;;3.67;;
12407;SDS011;6268;48.188;17.134;2023-04-16T09:06:02;4.38;;;4.13;;
12407;SDS011;6268;48.188;17.134;2023-04-16T09:08:34;3.53;;;3.33;;
12407;SDS011;6268;48.188;17.134;2023-04-16T09:11:03;4.15;;;3.85;;
12407;SDS011;6268;48.188;17.134;2023-04-16T09:13:32;3.03;;;2.83;;
12407;SDS011;6268;48.188;17.134;2023-04-16T09:16:02;2.92;;;2.80;;
12407;SDS011;6268;48.188;17.134;2023-04-16T09:18:33;2.90;;;2.70;;
12407;SDS011;6268;48.188;17.134;2023-04-16T09:21:02;2.70;;;2.55;;
12407;SDS011;6268;48.188;17.134;2023-04-16T09:23:34;2.65;;;2.45;;
12407;SDS011;6268;48.188;17.134;2023-04-16T09:26:05;2.88;;;2.67;;
12407;SDS011;6268;48.188;17.134;2023-04-16T09:28:37;3.05;;;2.85;;
12407;SDS011;6268;48.188;17.134;2023-04-16T09:31:08;2.85;;;2.65;;
12407;SDS011;6268;48.188;17.134;2023-04-16T09:33:39;3.08;;;2.88;;
12407;SDS011;6268;48.188;17.134;2023-04-16T09:36:09;3.22;;;3.03;;
12407;SDS011;6268;48.188;17.134;2023-04-16T09:38:46;3.40;;;3.10;;
12407;SDS011;6268;48.188;17.134;2023-04-16T09:41:16;3.53;;;3.33;;
12407;SDS011;6268;48.188;17.134;2023-04-16T09:43:48;2.47;;;2.38;;
12407;SDS011;6268;48.188;17.134;2023-04-16T09:46:23;2.60;;;2.40;;
12407;SDS011;6268;48.188;17.134;2023-04-16T09:48:56;1.80;;;1.70;;
12407;SDS011;6268;48.188;17.134;2023-04-16T09:51:35;1.80;;;1.70;;
12407;SDS011;6268;48.188;17.134;2023-04-16T09:54:06;1.50;;;1.40;;
12407;SDS011;6268;48.188;17.134;2023-04-16T09:56:40;2.30;;;2.10;;
12407;SDS011;6268;48.188;17.134;2023-04-16T09:59:15;3.05;;;2.90;;
12407;SDS011;6268;48.188;17.134;2023-04-16T10:01:44;2.50;;;2.40;;
12407;SDS011;6268;48.188;17.134;2023-04-16T10:04:15;2.42;;;2.33;;
12407;SDS011;6268;48.188;17.134;2023-04-16T10:06:44;2.45;;;2.35;;
12407;SDS011;6268;48.188;17.134;2023-04-16T10:09:33;2.17;;;2.08;;
12407;SDS011;6268;48.188;17.134;2023-04-16T10:12:05;2.33;;;2.22;;
12407;SDS011;6268;48.188;17.134;2023-04-16T10:14:34;1.92;;;1.83;;
12407;SDS011;6268;48.188;17.134;2023-04-16T10:17:03;1.60;;;1.50;;
12407;SDS011;6268;48.188;17.134;2023-04-16T10:19:32;1.98;;;1.77;;
12407;SDS011;6268;48.188;17.134;2023-04-16T10:22:02;1.80;;;1.70;;
12407;SDS011;6268;48.188;17.134;2023-04-16T10:24:32;1.50;;;1.40;;
12407;SDS011;6268;48.188;17.134;2023-04-16T10:27:02;1.38;;;1.38;;
12407;SDS011;6268;48.188;17.134;2023-04-16T10:29:31;1.38;;;1.30;;
12407;SDS011;6268;48.188;17.134;2023-04-16T10:32:01;1.52;;;1.42;;
12407;SDS011;6268;48.188;17.134;2023-04-16T10:34:32;1.20;;;1.20;;
12407;SDS011;6268;48.188;17.134;2023-04-16T10:37:02;1.15;;;1.15;;
12407;SDS011;6268;48.188;17.134;2023-04-16T10:39:30;1.63;;;1.63;;
12407;SDS011;6268;48.188;17.134;2023-04-16T10:42:07;1.27;;;1.27;;
12407;SDS011;6268;48.188;17.134;2023-04-16T10:44:38;1.45;;;1.40;;
12407;SDS011;6268;48.188;17.134;2023-04-16T10:47:11;1.30;;;1.30;;
12407;SDS011;6268;48.188;17.134;2023-04-16T10:49:40;1.70;;;1.60;;
12407;SDS011;6268;48.188;17.134;2023-04-16T10:52:10;1.92;;;1.83;;
12407;SDS011;6268;48.188;17.134;2023-04-16T10:54:44;1.90;;;1.80;;
12407;SDS011;6268;48.188;17.134;2023-04-16T10:57:14;2.38;;;2.15;;
12407;SDS011;6268;48.188;17.134;2023-04-16T10:59:47;2.33;;;2.22;;
12407;SDS011;6268;48.188;17.134;2023-04-16T11:02:16;2.80;;;2.60;;
12407;SDS011;6268;48.188;17.134;2023-04-16T11:04:46;3.13;;;2.92;;
12407;SDS011;6268;48.188;17.134;2023-04-16T11:07:17;2.40;;;2.30;;
12407;SDS011;6268;48.188;17.134;2023-04-16T11:09:52;3.03;;;2.92;;
12407;SDS011;6268;48.188;17.134;2023-04-16T11:12:25;3.55;;;3.28;;
12407;SDS011;6268;48.188;17.134;2023-04-16T11:15:02;3.78;;;3.58;;
12407;SDS011;6268;48.188;17.134;2023-04-16T11:17:35;2.95;;;2.75;;
12407;SDS011;6268;48.188;17.134;2023-04-16T11:20:06;3.92;;;3.72;;
12407;SDS011;6268;48.188;17.134;2023-04-16T11:22:46;4.00;;;3.80;;
12407;SDS011;6268;48.188;17.134;2023-04-16T11:25:19;3.30;;;3.05;;
12407;SDS011;6268;48.188;17.134;2023-04-16T11:27:49;3.17;;;2.97;;
12407;SDS011;6268;48.188;17.134;2023-04-16T11:30:26;3.63;;;3.40;;
12407;SDS011;6268;48.188;17.134;2023-04-16T11:32:56;4.20;;;3.90;;
12407;SDS011;6268;48.188;17.134;2023-04-16T11:35:25;4.30;;;4.03;;
12407;SDS011;6268;48.188;17.134;2023-04-16T11:37:54;3.53;;;3.33;;
12407;SDS011;6268;48.188;17.134;2023-04-16T11:40:26;3.30;;;3.10;;
12407;SDS011;6268;48.188;17.134;2023-04-16T11:43:00;3.45;;;3.15;;
12407;SDS011;6268;48.188;17.134;2023-04-16T11:45:29;2.92;;;2.72;;
12407;SDS011;6268;48.188;17.134;2023-04-16T11:47:58;3.72;;;3.53;;
12407;SDS011;6268;48.188;17.134;2023-04-16T11:50:27;2.47;;;2.38;;
12407;SDS011;6268;48.188;17.134;2023-04-16T11:52:56;3.10;;;2.90;;
12407;SDS011;6268;48.188;17.134;2023-04-16T11:55:34;2.97;;;2.78;;
12407;SDS011;6268;48.188;17.134;2023-04-16T11:58:11;2.83;;;2.72;;
12407;SDS011;6268;48.188;17.134;2023-04-16T12:00:42;3.35;;;3.15;;
12407;SDS011;6268;48.188;17.134;2023-04-16T12:03:11;3.45;;;3.25;;
12407;SDS011;6268;48.188;17.134;2023-04-16T12:05:40;3.17;;;2.97;;
12407;SDS011;6268;48.188;17.134;2023-04-16T12:08:10;3.40;;;2.63;;
12407;SDS011;6268;48.188;17.134;2023-04-16T12:10:53;3.22;;;3.03;;
12407;SDS011;6268;48.188;17.134;2023-04-16T12:13:23;3.50;;;3.20;;
12407;SDS011;6268;48.188;17.134;2023-04-16T12:15:52;3.30;;;3.10;;
12407;SDS011;6268;48.188;17.134;2023-04-16T12:18:23;3.58;;;3.28;;
12407;SDS011;6268;48.188;17.134;2023-04-16T12:20:52;3.03;;;2.83;;
12407;SDS011;6268;48.188;17.134;2023-04-16T12:23:22;2.88;;;2.67;;
12407;SDS011;6268;48.188;17.134;2023-04-16T12:25:54;3.88;;;3.50;;
12407;SDS011;6268;48.188;17.134;2023-04-16T12:28:29;3.10;;;2.90;;
12407;SDS011;6268;48.188;17.134;2023-04-16T12:30:59;3.38;;;3.17;;
12407;SDS011;6268;48.188;17.134;2023-04-16T12:33:28;3.38;;;3.17;;
12407;SDS011;6268;48.188;17.134;2023-04-16T12:35:57;3.10;;;2.92;;
12407;SDS011;6268;48.188;17.134;2023-04-16T12:38:28;3.63;;;3.42;;
12407;SDS011;6268;48.188;17.134;2023-04-16T12:40:58;7.15;;;6.65;;
12407;SDS011;6268;48.188;17.134;2023-04-16T12:43:27;3.90;;;3.60;;
12407;SDS011;6268;48.188;17.134;2023-04-16T12:45:56;4.63;;;4.22;;
12407;SDS011;6268;48.188;17.134;2023-04-16T12:48:27;3.17;;;2.97;;
12407;SDS011;6268;48.188;17.134;2023-04-16T12:50:57;3.90;;;3.70;;
12407;SDS011;6268;48.188;17.134;2023-04-16T12:53:26;3.28;;;3.10;;
12407;SDS011;6268;48.188;17.134;2023-04-16T12:55:55;3.67;;;3.38;;
12407;SDS011;6268;48.188;17.134;2023-04-16T12:58:26;3.58;;;3.30;;
12407;SDS011;6268;48.188;17.134;2023-04-16T13:00:55;2.92;;;2.83;;
12407;SDS011;6268;48.188;17.134;2023-04-16T13:03:23;2.95;;;2.85;;
12407;SDS011;6268;48.188;17.134;2023-04-16T13:05:52;3.00;;;2.80;;
12407;SDS011;6268;48.188;17.134;2023-04-16T13:08:22;3.47;;;3.28;;
12407;SDS011;6268;48.188;17.134;2023-04-16T13:10:51;3.17;;;2.97;;
12407;SDS011;6268;48.188;17.134;2023-04-16T13:13:20;4.05;;;3.80;;
12407;SDS011;6268;48.188;17.134;2023-04-16T13:15:50;3.40;;;3.20;;
12407;SDS011;6268;48.188;17.134;2023-04-16T13:18:19;4.35;;;4.05;;
12407;SDS011;6268;48.188;17.134;2023-04-16T13:20:48;3.35;;;3.15;;
12407;SDS011;6268;48.188;17.134;2023-04-16T13:23:17;4.07;;;3.88;;
12407;SDS011;6268;48.188;17.134;2023-04-16T13:25:46;2.42;;;2.33;;
12407;SDS011;6268;48.188;17.134;2023-04-16T13:28:16;3.72;;;2.50;;
12407;SDS011;6268;48.188;17.134;2023-04-16T13:30:44;2.85;;;2.75;;
12407;SDS011;6268;48.188;17.134;2023-04-16T13:33:15;2.78;;;2.63;;
12407;SDS011;6268;48.188;17.134;2023-04-16T13:35:43;3.00;;;2.80;;
12407;SDS011;6268;48.188;17.134;2023-04-16T13:38:12;2.75;;;2.65;;
12407;SDS011;6268;48.188;17.134;2023-04-16T13:40:41;2.78;;;2.67;;
12407;SDS011;6268;48.188;17.134;2023-04-16T13:43:10;2.92;;;2.72;;
12407;SDS011;6268;48.188;17.134;2023-04-16T13:45:39;3.28;;;2.97;;
12407;SDS011;6268;48.188;17.134;2023-04-16T13:48:08;2.70;;;2.53;;
12407;SDS011;6268;48.188;17.134;2023-04-16T13:50:38;2.65;;;2.55;;
12407;SDS011;6268;48.188;17.134;2023-04-16T13:53:07;2.47;;;2.30;;
12407;SDS011;6268;48.188;17.134;2023-04-16T13:55:36;2.40;;;2.30;;
12407;SDS011;6268;48.188;17.134;2023-04-16T13:58:05;3.72;;;2.33;;
12407;SDS011;6268;48.188;17.134;2023-04-16T14:00:33;2.28;;;2.17;;
12407;SDS011;6268;48.188;17.134;2023-04-16T14:03:02;2.47;;;2.38;;
12407;SDS011;6268;48.188;17.134;2023-04-16T14:05:32;3.08;;;2.90;;
12407;SDS011;6268;48.188;17.134;2023-04-16T14:08:02;4.97;;;4.57;;
12407;SDS011;6268;48.188;17.134;2023-04-16T14:10:31;3.63;;;3.42;;
12407;SDS011;6268;48.188;17.134;2023-04-16T14:13:00;3.95;;;3.75;;
12407;SDS011;6268;48.188;17.134;2023-04-16T14:15:29;2.85;;;2.65;;
12407;SDS011;6268;48.188;17.134;2023-04-16T14:17:57;2.15;;;2.05;;
12407;SDS011;6268;48.188;17.134;2023-04-16T14:20:26;2.63;;;2.53;;
12407;SDS011;6268;48.188;17.134;2023-04-16T14:22:55;4.10;;;3.72;;
12407;SDS011;6268;48.188;17.134;2023-04-16T14:25:25;2.50;;;2.40;;
12407;SDS011;6268;48.188;17.134;2023-04-16T14:27:55;2.75;;;2.65;;
12407;SDS011;6268;48.188;17.134;2023-04-16T14:30:25;2.20;;;2.10;;
12407;SDS011;6268;48.188;17.134;2023-04-16T14:32:54;3.47;;;2.20;;
12407;SDS011;6268;48.188;17.134;2023-04-16T14:35:23;2.10;;;2.00;;
12407;SDS011;6268;48.188;17.134;2023-04-16T14:37:52;2.25;;;2.15;;
12407;SDS011;6268;48.188;17.134;2023-04-16T14:40:21;2.72;;;2.63;;
12407;SDS011;6268;48.188;17.134;2023-04-16T14:42:51;3.15;;;2.95;;
12407;SDS011;6268;48.188;17.134;2023-04-16T14:45:19;3.30;;;3.10;;
12407;SDS011;6268;48.188;17.134;2023-04-16T14:47:48;2.85;;;2.67;;
12407;SDS011;6268;48.188;17.134;2023-04-16T14:50:17;2.70;;;2.60;;
12407;SDS011;6268;48.188;17.134;2023-04-16T14:52:46;3.05;;;2.85;;
12407;SDS011;6268;48.188;17.134;2023-04-16T14:55:15;2.90;;;2.80;;
12407;SDS011;6268;48.188;17.134;2023-04-16T14:57:44;2.72;;;2.63;;
12407;SDS011;6268;48.188;17.134;2023-04-16T15:00:15;2.65;;;2.45;;
12407;SDS011;6268;48.188;17.134;2023-04-16T15:02:44;2.60;;;2.50;;
12407;SDS011;6268;48.188;17.134;2023-04-16T15:05:14;2.63;;;2.53;;
12407;SDS011;6268;48.188;17.134;2023-04-16T15:07:42;2.72;;;2.50;;